Terminal Aerodrome Forecast
Issued by NWS

Home | Current Version | Previous Version | Text Only | Print | Product List | Glossary On
Versions: 1 2 3 4 5 6 7 8 9 10 11 12 13 14 15 16 17 18 19 20 21 22 23 24 25 26 27 28 29 30
118
FTUS46 KPDT 211735
TAFBDN
TAF
KBDN 211735Z 2118/2218 34005KT P6SM VCSH BKN006 OVC010
      TEMPO 2120/2121 SCT006 BKN012
     FM212100 30005KT P6SM FEW007 BKN015
     FM212200 32006KT P6SM FEW015 SCT035 BKN200
     FM220300 32005KT P6SM VCSH SCT024 OVC035
     FM221000 VRB03KT 1 1/2SM -SN BR BKN005 OVC009=

USA.gov is the U.S. government's official web portal to all federal, state and local government web resources and services.